Time;durP1;ratioP1;P1;durP2;ratioP2;P2;SDS_P1;SDS_P2;PMS_P1;PMS_P2;Temp;Humidity;BMP_temperature;BMP_pressure;BME280_temperature;BME280_humidity;BME280_pressure;Samples;Min_cycle;Max_cycle;Signal;HPM_P1;HPM_P2
2021/11/30 00:01:11;;;;;;;7.27;4.80;;;;;;;1.30;100.00;96531.88;5093377;28;20192;-65
2021/11/30 00:03:38;;;;;;;6.50;5.00;;;;;;;1.36;100.00;96531.16;5108413;28;20184;-64
2021/11/30 00:06:04;;;;;;;8.87;5.57;;;;;;;1.31;100.00;96533.47;5093074;28;20207;-65
2021/11/30 00:08:32;;;;;;;8.77;5.17;;;;;;;1.30;100.00;96538.81;5109663;28;20168;-65
2021/11/30 00:10:59;;;;;;;6.93;6.10;;;;;;;1.25;100.00;96542.72;5113079;28;20225;-65
2021/11/30 00:13:26;;;;;;;7.70;5.90;;;;;;;1.24;100.00;96535.13;5113102;28;20164;-65
2021/11/30 00:15:53;;;;;;;10.13;6.30;;;;;;;1.20;100.00;96545.03;5110822;28;20244;-64
2021/11/30 00:18:19;;;;;;;7.00;5.90;;;;;;;1.21;100.00;96548.41;5100405;28;20178;-65
2021/11/30 00:20:46;;;;;;;7.37;5.90;;;;;;;1.17;100.00;96555.69;5112975;28;20637;-65
2021/11/30 00:23:13;;;;;;;6.73;5.70;;;;;;;1.13;100.00;96548.47;5112904;28;20200;-65
2021/11/30 00:25:39;;;;;;;9.03;5.67;;;;;;;1.09;100.00;96555.75;5112414;28;20183;-65
2021/11/30 00:28:07;;;;;;;10.30;5.67;;;;;;;0.98;100.00;96561.31;5112067;28;20561;-66
2021/11/30 00:30:32;;;;;;;10.57;5.43;;;;;;;1.04;100.00;96554.66;5113538;28;20176;-65
2021/11/30 00:33:00;;;;;;;7.13;5.63;;;;;;;1.09;100.00;96560.13;5112783;28;20201;-66
2021/11/30 00:35:26;;;;;;;6.47;4.93;;;;;;;1.00;100.00;96561.16;5098254;28;20189;-65
2021/11/30 00:37:52;;;;;;;7.33;5.27;;;;;;;1.00;100.00;96550.84;5093181;28;20533;-65
2021/11/30 00:40:18;;;;;;;7.97;4.83;;;;;;;0.84;100.00;96556.88;5092856;28;20251;-65
2021/11/30 00:42:44;;;;;;;11.43;4.90;;;;;;;0.81;100.00;96557.25;5110300;28;20164;-65
2021/11/30 00:45:14;;;;;;;7.73;5.47;;;;;;;0.85;100.00;96563.66;5113050;28;20667;-65
2021/11/30 00:47:46;;;;;;;7.73;5.30;;;;;;;0.97;100.00;96566.66;5112365;28;20204;-66
2021/11/30 00:50:13;;;;;;;7.40;5.37;;;;;;;0.96;100.00;96563.25;5092941;28;20169;-65
2021/11/30 00:52:38;;;;;;;6.23;5.10;;;;;;;0.82;100.00;96575.13;5101316;28;20184;-66
2021/11/30 00:55:05;;;;;;;8.13;4.73;;;;;;;0.79;100.00;96572.06;5112946;28;20591;-65
2021/11/30 00:57:31;;;;;;;5.60;4.67;;;;;;;0.92;100.00;96564.59;5112667;28;20206;-67
2021/11/30 00:59:57;;;;;;;7.30;6.47;;;;;;;0.99;100.00;96565.50;5092083;28;20443;-65
2021/11/30 01:02:22;;;;;;;6.63;5.60;;;;;;;1.13;100.00;96571.69;5097988;28;20492;-65
2021/11/30 01:04:48;;;;;;;6.85;5.15;;;;;;;1.05;100.00;96566.59;5099026;28;20425;-66
2021/11/30 01:07:15;;;;;;;5.25;4.70;;;;;;;1.07;100.00;96580.13;5096852;28;20404;-66
2021/11/30 01:09:41;;;;;;;5.10;4.60;;;;;;;1.04;100.00;96578.69;5078015;28;20394;-67
2021/11/30 01:12:08;;;;;;;5.28;4.45;;;;;;;1.01;100.00;96581.59;5091596;28;20390;-65
2021/11/30 01:14:33;;;;;;;4.95;4.45;;;;;;;1.17;100.00;96578.91;5091539;28;20390;-65
2021/11/30 01:16:59;;;;;;;4.90;4.40;;;;;;;1.17;100.00;96573.75;5102303;28;20714;-66
2021/11/30 01:19:25;;;;;;;4.97;4.47;;;;;;;1.16;100.00;96584.25;5096634;28;20402;-66
2021/11/30 01:21:51;;;;;;;5.80;4.50;;;;;;;1.16;100.00;96584.25;5112607;28;20392;-66
2021/11/30 01:24:17;;;;;;;4.10;3.70;;;;;;;1.26;100.00;96592.56;5115179;28;20388;-65
2021/11/30 01:26:42;;;;;;;5.23;4.10;;;;;;;1.25;100.00;96586.59;5105477;28;20497;-65
2021/11/30 01:29:08;;;;;;;4.50;4.10;;;;;;;1.08;100.00;96590.28;5107429;28;20392;-65
2021/11/30 01:31:34;;;;;;;4.40;4.00;;;;;;;1.09;100.00;96596.25;5099267;28;20386;-65
2021/11/30 01:34:00;;;;;;;4.25;3.85;;;;;;;1.09;100.00;96614.31;5095172;28;20413;-65
2021/11/30 01:36:25;;;;;;;4.28;3.88;;;;;;;1.30;100.00;96611.88;5094777;28;20390;-66
2021/11/30 01:38:51;;;;;;;4.30;3.88;;;;;;;1.40;100.00;96614.22;5094957;28;20481;-65
2021/11/30 01:41:17;;;;;;;4.83;3.70;;;;;;;1.43;100.00;96613.91;5095155;28;20393;-66
2021/11/30 01:43:44;;;;;;;3.77;3.47;;;;;;;1.38;100.00;96618.78;5111455;28;20738;-65
2021/11/30 01:46:26;;;;;;;4.18;3.40;;;;;;;1.38;100.00;96613.63;5094502;28;20930;-66
2021/11/30 01:51:36;;;;;;;3.78;3.45;;;;;;;1.29;100.00;96619.81;5109660;28;20465;-66
2021/11/30 01:54:02;;;;;;;3.77;3.40;;;;;;;1.23;100.00;96619.50;5098988;28;20394;-65
2021/11/30 01:56:28;;;;;;;5.10;3.58;;;;;;;1.37;100.00;96619.75;5094520;28;20808;-65
2021/11/30 01:58:53;;;;;;;3.70;3.25;;;;;;;1.31;100.00;96626.41;5104734;28;20399;-65
2021/11/30 02:01:20;;;;;;;4.10;3.20;;;;;;;1.33;100.00;96621.09;5108901;28;20400;-65
2021/11/30 02:03:46;;;;;;;3.20;3.00;;;;;;;1.44;100.00;96625.84;5094212;28;20492;-67
2021/11/30 02:06:13;;;;;;;3.20;2.90;;;;;;;1.36;100.00;96624.09;5095196;28;20418;-67
2021/11/30 02:08:38;;;;;;;3.15;2.88;;;;;;;1.33;100.00;96616.72;5111324;28;20395;-65
2021/11/30 02:11:04;;;;;;;3.57;2.90;;;;;;;1.53;100.00;96630.75;5114551;28;20399;-65
2021/11/30 02:13:33;;;;;;;4.38;3.10;;;;;;;1.60;98.75;96626.50;5098780;28;20436;-65
2021/11/30 02:16:01;;;;;;;3.60;2.85;;;;;;;1.57;99.49;96628.63;5096648;28;20398;-66
2021/11/30 02:18:28;;;;;;;3.10;2.80;;;;;;;1.58;99.70;96630.22;5100759;28;20398;-65
2021/11/30 02:20:59;;;;;;;3.58;2.90;;;;;;;1.62;97.99;96628.91;5076418;28;20470;-65
2021/11/30 02:24:00;;;;;;;3.70;2.78;;;;;;;1.48;98.52;96632.25;5094361;28;20390;-65
2021/11/30 02:26:18;;;;;;;2.77;2.50;;;;;;;1.49;98.13;96641.59;5101571;28;20406;-65
2021/11/30 02:28:46;;;;;;;5.00;2.70;;;;;;;1.53;97.87;96632.53;5093994;28;20812;-65
2021/11/30 02:31:15;;;;;;;3.55;2.70;;;;;;;1.43;98.62;96631.97;5106962;28;20749;-65
2021/11/30 02:33:41;;;;;;;2.70;2.50;;;;;;;1.50;98.08;96635.47;5104399;28;20393;-65
2021/11/30 02:36:30;;;;;;;3.63;2.63;;;;;;;1.47;97.25;96633.22;5093825;28;20404;-65
2021/11/30 02:38:59;;;;;;;3.35;2.30;;;;;;;1.31;97.92;96634.16;5093856;28;20829;-65
2021/11/30 02:41:25;;;;;;;4.45;2.45;;;;;;;1.59;97.64;96629.25;5101764;28;20389;-65
2021/11/30 02:43:51;;;;;;;2.50;2.30;;;;;;;1.47;97.57;96634.03;5075434;28;20390;-65
2021/11/30 02:46:31;;;;;;;3.67;2.85;;;;;;;1.67;96.49;96635.16;5093611;28;20410;-65
2021/11/30 02:48:57;;;;;;;2.60;2.33;;;;;;;1.62;95.39;96637.44;5110876;28;20862;-65
2021/11/30 02:51:23;;;;;;;2.50;2.30;;;;;;;1.41;97.61;96629.56;5075199;28;20434;-66
2021/11/30 02:53:49;;;;;;;2.25;2.15;;;;;;;1.39;96.72;96633.31;5102401;28;20502;-65
2021/11/30 02:56:14;;;;;;;2.63;2.40;;;;;;;1.24;96.43;96634.03;5113510;28;20420;-65
2021/11/30 02:58:39;;;;;;;3.37;2.50;;;;;;;1.33;96.80;96624.47;5112998;28;20850;-65
2021/11/30 03:01:07;;;;;;;5.13;2.50;;;;;;;1.21;96.90;96624.06;5093495;28;20437;-65
2021/11/30 03:03:32;;;;;;;3.22;2.40;;;;;;;1.24;95.96;96618.53;5092174;28;20405;-68
2021/11/30 03:05:58;;;;;;;3.53;2.30;;;;;;;1.16;96.68;96634.09;5092712;28;20942;-66
2021/11/30 03:08:23;;;;;;;3.60;2.40;;;;;;;1.13;96.33;96642.19;5100057;28;20399;-65
2021/11/30 03:10:49;;;;;;;3.65;2.50;;;;;;;1.05;96.35;96638.84;5095104;28;20882;-65
2021/11/30 03:13:14;;;;;;;3.15;2.60;;;;;;;1.08;96.59;96646.25;5093305;28;20454;-65
2021/11/30 03:15:40;;;;;;;2.60;2.40;;;;;;;1.08;95.75;96641.88;5093088;28;20393;-65
2021/11/30 03:18:05;;;;;;;3.83;2.43;;;;;;;1.06;96.55;96643.81;5093132;28;20790;-66
2021/11/30 03:20:31;;;;;;;3.40;2.40;;;;;;;0.98;96.83;96640.50;5109076;28;20392;-66
2021/11/30 03:22:56;;;;;;;2.70;2.50;;;;;;;1.13;95.47;96638.78;5094751;28;20412;-65
2021/11/30 03:25:22;;;;;;;2.70;2.30;;;;;;;1.12;94.91;96632.81;5093266;28;20394;-65
2021/11/30 03:27:48;;;;;;;4.03;2.30;;;;;;;1.04;94.31;96630.31;5092461;28;20464;-65
2021/11/30 03:30:15;;;;;;;2.50;2.30;;;;;;;1.02;94.79;96627.09;5093031;28;20398;-65
2021/11/30 03:35:25;;;;;;;2.80;2.05;;;;;;;0.96;95.65;96624.38;5112057;28;20772;-66
2021/11/30 03:37:51;;;;;;;3.00;2.30;;;;;;;1.07;94.21;96629.16;5112286;28;20396;-65
2021/11/30 03:40:17;;;;;;;2.70;2.30;;;;;;;1.12;93.79;96625.06;5099608;28;20414;-65
2021/11/30 03:42:42;;;;;;;2.13;2.03;;;;;;;1.20;93.56;96630.19;5093274;28;20437;-65
2021/11/30 03:45:08;;;;;;;2.30;2.10;;;;;;;1.17;92.56;96624.59;5111112;28;20430;-65
2021/11/30 03:47:34;;;;;;;2.25;2.03;;;;;;;1.14;92.85;96620.56;5105663;28;20881;-65
2021/11/30 03:50:00;;;;;;;2.40;1.95;;;;;;;1.22;92.73;96625.69;5092793;28;20393;-65
2021/11/30 03:52:25;;;;;;;2.53;2.07;;;;;;;1.01;93.34;96624.66;5093177;28;20972;-65
2021/11/30 03:54:51;;;;;;;2.60;2.20;;;;;;;1.19;93.89;96622.63;5092146;28;20410;-64
2021/11/30 03:57:16;;;;;;;2.67;2.17;;;;;;;1.34;92.92;96610.56;5092154;28;20484;-65
2021/11/30 03:59:42;;;;;;;2.37;1.97;;;;;;;1.40;92.47;96611.66;5092236;28;20488;-65
2021/11/30 04:02:07;;;;;;;3.50;2.10;;;;;;;1.48;92.07;96598.69;5103991;28;20393;-65
2021/11/30 04:04:41;;;;;;;3.27;2.20;;;;;;;1.48;92.01;96590.94;5090479;28;20890;-65
2021/11/30 04:07:06;;;;;;;3.15;2.00;;;;;;;1.24;94.08;96592.72;5085765;28;20466;-65
2021/11/30 04:09:32;;;;;;;2.87;2.20;;;;;;;1.31;93.52;96604.94;5111897;28;20896;-65
2021/11/30 04:11:58;;;;;;;2.40;2.20;;;;;;;1.19;92.96;96599.38;5095153;28;20465;-65
2021/11/30 04:14:23;;;;;;;2.50;2.10;;;;;;;1.30;93.73;96603.34;5105695;28;20386;-65
2021/11/30 04:16:49;;;;;;;3.63;2.30;;;;;;;1.28;93.61;96597.56;5091863;28;20394;-65
2021/11/30 04:19:15;;;;;;;3.20;2.40;;;;;;;1.13;93.93;96589.75;5092487;28;20885;-68
2021/11/30 04:21:40;;;;;;;2.50;2.30;;;;;;;1.15;94.21;96586.03;5091823;28;20390;-65
2021/11/30 04:24:06;;;;;;;5.45;2.38;;;;;;;1.22;94.46;96583.56;5107832;28;20439;-65
2021/11/30 04:26:31;;;;;;;2.95;2.50;;;;;;;1.05;95.48;96585.47;5099926;28;20404;-65
2021/11/30 04:28:57;;;;;;;3.23;2.33;;;;;;;1.28;94.38;96587.25;5101305;28;20757;-65
2021/11/30 04:31:23;;;;;;;2.70;2.50;;;;;;;1.12;94.59;96575.25;5091775;28;20405;-66
2021/11/30 04:33:48;;;;;;;3.20;2.57;;;;;;;1.04;94.82;96570.97;5109022;28;20412;-65
2021/11/30 04:36:14;;;;;;;4.10;2.70;;;;;;;1.01;94.29;96573.88;5112120;28;20721;-65
2021/11/30 04:38:40;;;;;;;3.85;2.60;;;;;;;1.08;93.81;96572.22;5111707;28;20400;-66
2021/11/30 04:41:06;;;;;;;4.25;2.50;;;;;;;1.09;94.34;96570.44;5110584;28;20907;-65
2021/11/30 04:43:35;;;;;;;3.22;2.35;;;;;;;1.06;93.92;96565.63;5096108;28;20421;-65
2021/11/30 04:46:13;;;;;;;2.85;2.33;;;;;;;1.03;93.78;96555.63;5111283;28;20422;-65
2021/11/30 04:48:40;;;;;;;4.40;2.73;;;;;;;0.96;94.10;96554.72;5092935;28;20389;-65
2021/11/30 04:51:09;;;;;;;3.40;2.60;;;;;;;0.86;95.15;96574.78;5091499;28;20413;-64
2021/11/30 04:53:35;;;;;;;2.80;2.60;;;;;;;0.89;94.83;96569.28;5091340;28;20886;-65
2021/11/30 04:56:01;;;;;;;4.30;2.80;;;;;;;0.87;95.09;96558.34;5097182;28;20404;-66
2021/11/30 04:58:27;;;;;;;3.43;2.83;;;;;;;0.76;94.77;96564.69;5115413;28;20768;-66
2021/11/30 05:00:52;;;;;;;3.43;3.00;;;;;;;0.79;93.98;96562.56;5115685;28;20427;-64
2021/11/30 05:03:18;;;;;;;3.20;2.90;;;;;;;0.89;94.49;96567.53;5101449;28;20500;-63
2021/11/30 05:05:45;;;;;;;3.72;2.70;;;;;;;0.94;94.02;96559.25;5075792;28;20969;-63
2021/11/30 05:08:10;;;;;;;3.15;2.60;;;;;;;0.98;94.45;96557.94;5096836;28;20413;-63
2021/11/30 05:10:36;;;;;;;3.65;2.60;;;;;;;0.88;94.75;96537.53;5103118;28;20776;-63
2021/11/30 05:13:02;;;;;;;3.10;2.80;;;;;;;1.04;93.20;96539.19;5104431;28;20396;-63
2021/11/30 05:15:28;;;;;;;3.08;2.78;;;;;;;1.04;93.34;96545.16;5077180;28;20397;-63
2021/11/30 05:17:53;;;;;;;3.63;2.73;;;;;;;0.88;94.22;96537.53;5095448;28;20398;-63
2021/11/30 05:20:19;;;;;;;4.37;3.00;;;;;;;0.91;94.21;96547.50;5094956;28;20492;-63
2021/11/30 05:22:44;;;;;;;2.90;2.70;;;;;;;0.95;94.39;96537.66;5103912;28;20400;-64
2021/11/30 05:25:10;;;;;;;3.05;2.75;;;;;;;1.03;94.46;96542.75;5102099;28;20715;-64
2021/11/30 05:27:40;;;;;;;3.35;2.92;;;;;;;0.83;95.16;96552.72;5095054;28;20446;-63
2021/11/30 05:30:17;;;;;;;3.13;2.83;;;;;;;0.95;95.41;96542.81;5095099;28;20398;-63
2021/11/30 05:32:43;;;;;;;4.85;3.03;;;;;;;0.88;95.77;96541.88;5103221;28;20908;-63
2021/11/30 05:35:10;;;;;;;3.33;3.03;;;;;;;0.78;96.03;96539.53;5115118;28;20533;-63
2021/11/30 05:37:35;;;;;;;4.68;3.03;;;;;;;0.83;96.27;96532.91;5106861;28;20396;-64
2021/11/30 05:40:01;;;;;;;4.83;3.33;;;;;;;0.83;96.51;96534.69;5113708;28;20852;-63
2021/11/30 05:42:27;;;;;;;4.17;3.37;;;;;;;0.90;96.04;96534.75;5108335;28;20397;-63
2021/11/30 05:44:52;;;;;;;4.13;3.40;;;;;;;0.88;95.96;96537.53;5094781;28;20943;-63
2021/11/30 05:47:18;;;;;;;3.60;3.30;;;;;;;0.84;96.30;96533.69;5094968;28;20486;-63
2021/11/30 05:49:43;;;;;;;5.72;3.15;;;;;;;0.78;96.96;96530.00;5077144;28;20429;-63
2021/11/30 05:52:09;;;;;;;4.32;3.28;;;;;;;0.94;96.60;96526.53;5099395;28;20461;-63
2021/11/30 05:54:36;;;;;;;5.50;3.30;;;;;;;0.96;95.85;96521.97;5113810;28;20465;-63
2021/11/30 05:57:02;;;;;;;3.95;3.30;;;;;;;0.91;96.00;96518.31;5096731;28;20396;-63
2021/11/30 05:59:35;;;;;;;3.73;3.20;;;;;;;0.97;95.76;96510.69;5114588;28;20433;-61
2021/11/30 06:02:01;;;;;;;3.97;3.20;;;;;;;0.83;96.35;96511.47;5106871;28;20404;-61
2021/11/30 06:04:27;;;;;;;3.92;3.10;;;;;;;0.78;96.55;96511.94;5103302;28;20904;-61
2021/11/30 06:06:52;;;;;;;3.57;3.23;;;;;;;0.86;95.83;96503.34;5094537;28;20592;-62
2021/11/30 06:09:18;;;;;;;4.38;3.50;;;;;;;0.83;96.85;96501.94;5094649;28;20394;-62
2021/11/30 06:11:45;;;;;;;3.45;3.15;;;;;;;0.71;96.07;96499.94;5103073;28;20419;-63
2021/11/30 06:14:10;;;;;;;3.63;3.33;;;;;;;0.62;96.31;96494.00;5114634;28;20388;-62
2021/11/30 06:16:36;;;;;;;4.40;3.23;;;;;;;0.62;96.40;96498.38;5095876;28;20396;-63
2021/11/30 06:19:01;;;;;;;4.03;3.50;;;;;;;0.67;96.32;96502.03;5097981;28;20432;-62
2021/11/30 06:21:27;;;;;;;3.73;3.33;;;;;;;0.65;96.38;96496.25;5107492;28;20457;-64
2021/11/30 06:23:53;;;;;;;3.80;3.40;;;;;;;0.68;96.62;96497.69;5096211;28;20401;-66
2021/11/30 06:26:19;;;;;;;4.37;3.60;;;;;;;0.57;97.12;96491.16;5093808;28;20397;-62
2021/11/30 06:28:44;;;;;;;5.10;3.20;;;;;;;0.72;97.35;96493.81;5094250;28;20393;-64
2021/11/30 06:31:10;;;;;;;4.23;3.60;;;;;;;0.71;97.88;96477.53;5096402;28;20938;-63
2021/11/30 06:33:36;;;;;;;5.28;3.50;;;;;;;0.43;99.78;96480.78;5093849;28;20393;-63
2021/11/30 06:36:03;;;;;;;4.17;3.77;;;;;;;0.46;100.00;96481.22;5096924;28;20446;-64
2021/11/30 06:38:28;;;;;;;4.25;3.85;;;;;;;0.50;100.00;96490.25;5113866;28;20438;-63
2021/11/30 06:40:54;;;;;;;5.60;4.20;;;;;;;0.56;99.72;96476.66;5111872;28;20880;-63
2021/11/30 06:43:20;;;;;;;5.17;4.20;;;;;;;0.54;100.00;96480.38;5093590;28;20405;-63
2021/11/30 06:45:46;;;;;;;6.28;4.35;;;;;;;0.56;100.00;96481.81;5091877;28;20400;-63
2021/11/30 06:48:13;;;;;;;5.20;4.00;;;;;;;0.44;100.00;96472.88;5112164;28;20396;-63
2021/11/30 06:50:38;;;;;;;4.28;3.88;;;;;;;0.39;100.00;96465.63;5109156;28;20885;-63
2021/11/30 06:53:04;;;;;;;5.65;4.35;;;;;;;0.51;100.00;96460.91;5100364;28;20401;-62
2021/11/30 06:55:30;;;;;;;5.95;4.15;;;;;;;0.50;100.00;96461.09;5113575;28;20491;-63
2021/11/30 06:57:56;;;;;;;5.75;4.20;;;;;;;0.44;100.00;96465.16;5103280;28;20878;-62
2021/11/30 07:00:23;;;;;;;5.07;4.13;;;;;;;0.24;100.00;96454.47;5095889;28;20414;-62
2021/11/30 07:02:51;;;;;;;5.80;4.23;;;;;;;0.24;100.00;96443.34;5111196;28;20465;-63
2021/11/30 07:05:21;;;;;;;6.80;4.05;;;;;;;0.35;100.00;96448.94;5079133;28;20423;-69
2021/11/30 07:07:56;;;;;;;5.50;3.70;;;;;;;0.29;100.00;96441.88;5084984;28;20417;-62
2021/11/30 07:13:14;;;;;;;3.90;3.60;;;;;;;0.29;100.00;96429.00;5073230;28;20402;-62
2021/11/30 07:15:39;;;;;;;4.85;3.58;;;;;;;0.30;100.00;96438.31;5072765;28;20537;-61
2021/11/30 07:18:05;;;;;;;3.80;3.38;;;;;;;0.41;100.00;96432.78;5089140;28;20584;-63
2021/11/30 07:20:30;;;;;;;4.10;3.80;;;;;;;0.43;100.00;96435.19;5092402;28;20464;-63
2021/11/30 07:22:57;;;;;;;7.97;5.77;;;;;;;0.43;100.00;96421.50;5092295;28;20750;-63
2021/11/30 07:25:26;;;;;;;3.33;3.10;;;;;;;0.58;100.00;96427.50;5081734;28;20399;-61
2021/11/30 07:27:52;;;;;;;4.22;3.30;;;;;;;0.62;100.00;96416.66;5086452;28;20414;-63
2021/11/30 07:30:18;;;;;;;3.25;2.90;;;;;;;0.57;99.90;96410.41;5082435;28;20491;-63
2021/11/30 07:32:44;;;;;;;4.95;3.00;;;;;;;0.53;98.68;96416.91;5072442;28;20483;-60
2021/11/30 07:35:10;;;;;;;3.23;2.77;;;;;;;0.61;98.62;96414.28;5072330;28;20411;-62
2021/11/30 07:37:35;;;;;;;3.10;2.80;;;;;;;0.65;98.68;96418.91;5080340;28;20477;-62
2021/11/30 07:40:01;;;;;;;3.10;2.80;;;;;;;0.66;99.00;96406.81;5077022;28;20406;-59
2021/11/30 07:42:30;;;;;;;3.03;2.63;;;;;;;0.70;98.47;96390.81;5072139;28;20470;-58
2021/11/30 07:44:57;;;;;;;2.50;2.30;;;;;;;0.74;98.38;96381.75;5080713;28;20407;-57
2021/11/30 07:47:22;;;;;;;2.75;2.50;;;;;;;1.05;100.00;96384.19;5072183;28;20460;-61
2021/11/30 07:49:48;;;;;;;6.37;4.97;;;;;;;2.95;100.00;96376.06;5088596;28;20902;-63
2021/11/30 07:52:13;;;;;;;2.23;2.03;;;;;;;1.97;93.64;96356.91;5073666;28;20403;-59
2021/11/30 07:54:39;;;;;;;2.40;2.20;;;;;;;1.31;94.59;96370.84;5072205;28;20784;-61
2021/11/30 07:57:05;;;;;;;3.28;2.13;;;;;;;1.14;94.80;96362.50;5077215;28;20738;-61
2021/11/30 07:59:32;;;;;;;2.53;2.13;;;;;;;1.04;95.19;96356.78;5072837;28;20399;-59
2021/11/30 08:01:57;;;;;;;3.30;2.22;;;;;;;1.00;95.59;96360.72;5085732;28;20422;-59
2021/11/30 08:04:23;;;;;;;2.60;1.98;;;;;;;0.91;95.87;96361.75;5093293;28;20424;-57
2021/11/30 08:06:48;;;;;;;2.38;2.17;;;;;;;0.99;95.96;96356.53;5112625;28;20721;-60
2021/11/30 08:09:14;;;;;;;2.15;2.00;;;;;;;0.93;96.16;96359.81;5100690;28;20850;-57
2021/11/30 08:11:40;;;;;;;2.58;2.17;;;;;;;0.87;96.91;96364.88;5108172;28;20384;-57
2021/11/30 08:14:05;;;;;;;2.73;2.53;;;;;;;0.83;98.65;96362.66;5093177;28;20393;-56
2021/11/30 08:16:31;;;;;;;2.43;2.20;;;;;;;0.76;98.28;96368.69;5098530;28;20434;-57
2021/11/30 08:18:56;;;;;;;5.50;2.30;;;;;;;0.67;99.03;96367.94;5077345;28;20475;-59
2021/11/30 08:21:22;;;;;;;2.80;2.60;;;;;;;0.74;98.94;96371.44;5111974;28;20845;-60
2021/11/30 08:23:47;;;;;;;3.67;2.30;;;;;;;0.70;98.68;96353.91;5104810;28;20473;-60
2021/11/30 08:26:13;;;;;;;2.83;2.30;;;;;;;0.78;98.36;96367.50;5099679;28;20815;-60
2021/11/30 08:28:40;;;;;;;2.50;2.30;;;;;;;0.89;97.84;96366.31;5110557;28;20396;-61
2021/11/30 08:31:06;;;;;;;2.92;2.25;;;;;;;0.81;98.34;96354.28;5092031;28;20396;-60
2021/11/30 08:33:31;;;;;;;2.30;2.10;;;;;;;0.96;97.90;96340.59;5104298;28;20406;-60
2021/11/30 08:35:57;;;;;;;2.50;2.30;;;;;;;0.89;98.39;96348.25;5101094;28;20817;-60
2021/11/30 08:38:24;;;;;;;2.17;1.98;;;;;;;1.00;97.87;96334.13;5105188;28;20745;-60
2021/11/30 08:40:49;;;;;;;2.50;2.30;;;;;;;0.97;97.45;96343.00;5110194;28;20450;-62
2021/11/30 08:43:15;;;;;;;3.17;2.30;;;;;;;0.83;96.16;96349.75;5096001;28;20442;-56
2021/11/30 08:45:42;;;;;;;2.17;1.98;;;;;;;0.76;96.54;96335.97;5100708;28;20953;-60
2021/11/30 08:48:08;;;;;;;2.15;2.05;;;;;;;0.95;96.83;96349.31;5101269;28;20398;-59
2021/11/30 08:50:34;;;;;;;2.88;2.30;;;;;;;0.95;95.64;96339.78;5091421;28;20398;-60
2021/11/30 08:53:00;;;;;;;2.20;2.00;;;;;;;0.98;95.49;96329.13;5092060;28;20397;-58
2021/11/30 08:55:26;;;;;;;2.08;1.92;;;;;;;0.96;95.74;96317.38;5097617;28;20398;-57
2021/11/30 08:57:51;;;;;;;2.00;1.80;;;;;;;0.84;96.13;96333.28;5094583;28;20870;-58
2021/11/30 09:00:21;;;;;;;3.47;2.20;;;;;;;1.05;94.78;96318.91;5092810;28;20431;-58
2021/11/30 09:02:47;;;;;;;2.20;2.00;;;;;;;1.05;94.80;96317.13;5092235;28;20408;-58
2021/11/30 09:05:13;;;;;;;2.08;1.98;;;;;;;1.11;94.54;96307.88;5100401;28;20425;-57
2021/11/30 09:07:39;;;;;;;3.47;2.30;;;;;;;1.21;94.10;96310.97;5106437;28;20420;-59
2021/11/30 09:10:07;;;;;;;2.05;1.90;;;;;;;1.04;94.58;96304.38;5099553;28;20876;-56
2021/11/30 09:12:33;;;;;;;2.63;2.13;;;;;;;1.12;94.57;96314.59;5094982;28;20397;-58
2021/11/30 09:14:58;;;;;;;2.10;1.98;;;;;;;1.26;94.74;96306.06;5076101;28;20796;-58
2021/11/30 09:17:24;;;;;;;2.00;1.83;;;;;;;1.27;94.35;96302.50;5109106;28;20493;-58
2021/11/30 09:19:50;;;;;;;2.17;1.97;;;;;;;1.34;93.82;96310.31;5091290;28;20402;-57
2021/11/30 09:22:16;;;;;;;2.20;2.00;;;;;;;1.23;94.57;96291.72;5099400;28;20481;-58
2021/11/30 09:24:42;;;;;;;1.95;1.85;;;;;;;1.17;94.68;96312.31;5091042;28;20389;-59
2021/11/30 09:27:08;;;;;;;2.63;2.03;;;;;;;1.15;95.61;96309.09;5090887;28;20902;-60
2021/11/30 09:29:33;;;;;;;3.83;2.00;;;;;;;1.14;96.18;96312.66;5110680;28;20408;-58
2021/11/30 09:31:59;;;;;;;2.10;1.90;;;;;;;1.08;96.36;96308.19;5110777;28;20467;-58
2021/11/30 09:34:25;;;;;;;2.00;1.90;;;;;;;1.22;95.61;96309.97;5097619;28;20425;-56
2021/11/30 09:36:54;;;;;;;1.98;1.80;;;;;;;1.33;94.72;96313.88;5105317;28;20492;-56
2021/11/30 09:39:21;;;;;;;2.20;2.00;;;;;;;1.44;93.66;96301.31;5091875;28;20386;-58
2021/11/30 09:41:47;;;;;;;2.10;1.90;;;;;;;1.47;93.58;96303.53;5104893;28;20485;-58
2021/11/30 09:44:15;;;;;;;1.70;1.60;;;;;;;1.52;92.54;96290.88;5109236;28;20452;-56
2021/11/30 09:46:41;;;;;;;2.30;1.85;;;;;;;1.51;92.84;96291.84;5094334;28;20893;-54
2021/11/30 09:49:07;;;;;;;2.07;1.97;;;;;;;1.57;93.68;96283.38;5110543;28;20392;-54
2021/11/30 09:51:32;;;;;;;1.70;1.60;;;;;;;1.54;93.47;96278.56;5114234;28;20709;-58
2021/11/30 09:53:58;;;;;;;1.90;1.80;;;;;;;1.62;93.25;96287.97;5113044;28;20884;-56
2021/11/30 09:56:24;;;;;;;2.30;1.90;;;;;;;1.65;93.50;96285.84;5096326;28;20397;-58
2021/11/30 09:58:51;;;;;;;1.80;1.60;;;;;;;1.72;93.04;96288.50;5076896;28;20406;-56
2021/11/30 10:01:17;;;;;;;1.92;1.63;;;;;;;1.64;92.88;96283.44;5093884;28;20406;-56
2021/11/30 10:03:43;;;;;;;2.75;2.00;;;;;;;1.56;94.19;96279.19;5092957;28;20402;-58
2021/11/30 10:06:10;;;;;;;1.95;1.73;;;;;;;1.67;94.22;96270.94;5106512;28;20407;-54
2021/11/30 10:08:41;;;;;;;1.70;1.60;;;;;;;1.51;94.38;96265.22;5111911;28;20798;-51
2021/11/30 10:11:10;;;;;;;1.65;1.55;;;;;;;1.58;95.17;96277.22;5106919;28;20393;-52
2021/11/30 10:13:37;;;;;;;2.70;1.60;;;;;;;1.76;94.36;96268.25;5113263;28;20389;-54
2021/11/30 10:16:05;;;;;;;1.65;1.55;;;;;;;1.67;94.34;96257.25;5113816;28;20420;-55
2021/11/30 10:18:36;;;;;;;1.40;1.30;;;;;;;1.71;93.17;96253.31;5099844;28;20517;-54
2021/11/30 10:21:08;;;;;;;1.35;1.33;;;;;;;1.65;92.70;96252.28;5094906;28;20931;-57
2021/11/30 10:23:56;;;;;;;1.50;1.40;;;;;;;1.59;93.25;96242.69;5099335;28;20395;-56
2021/11/30 10:26:26;;;;;;;1.48;1.35;;;;;;;1.74;94.39;96246.97;5113357;28;20882;-57
2021/11/30 10:29:12;;;;;;;1.58;1.38;;;;;;;1.78;93.70;96230.94;5103953;28;20436;-58
2021/11/30 10:31:47;;;;;;;1.42;1.33;;;;;;;1.45;96.45;96247.91;5107786;28;20447;-55
2021/11/30 10:34:12;;;;;;;1.50;1.40;;;;;;;1.59;95.85;96244.47;5093625;28;20409;-58
2021/11/30 10:36:49;;;;;;;1.40;1.30;;;;;;;1.53;95.57;96245.19;5101509;28;20847;-58
2021/11/30 10:39:25;;;;;;;1.50;1.40;;;;;;;1.43;96.88;96237.75;5107280;28;20401;-57
2021/11/30 10:41:51;;;;;;;1.20;1.20;;;;;;;1.37;96.07;96232.50;5094603;28;20390;-58
2021/11/30 10:44:31;;;;;;;1.45;1.35;;;;;;;1.41;97.06;96229.38;5105905;28;20392;-56
2021/11/30 10:47:11;;;;;;;2.23;1.50;;;;;;;1.49;96.97;96241.38;5096041;28;20497;-58
2021/11/30 10:49:50;;;;;;;1.35;1.30;;;;;;;1.42;97.37;96227.59;5096703;28;20417;-59
2021/11/30 10:52:19;;;;;;;1.75;1.33;;;;;;;1.53;97.04;96227.91;5096144;28;20796;-58
2021/11/30 10:54:44;;;;;;;1.50;1.40;;;;;;;1.46;97.95;96223.66;5112782;28;20407;-59
2021/11/30 10:57:10;;;;;;;1.50;1.40;;;;;;;1.45;99.00;96207.38;5097158;28;20472;-54
2021/11/30 10:59:36;;;;;;;1.38;1.20;;;;;;;1.34;100.00;96213.00;5106008;28;20393;-57
2021/11/30 11:02:01;;;;;;;1.90;1.20;;;;;;;1.37;100.00;96206.69;5111368;28;20434;-58
2021/11/30 11:04:35;;;;;;;2.17;1.53;;;;;;;1.42;100.00;96194.84;5098364;28;20499;-58
2021/11/30 11:07:12;;;;;;;1.30;1.20;;;;;;;1.32;100.00;96189.19;5103842;28;20487;-58
2021/11/30 11:09:42;;;;;;;1.45;1.33;;;;;;;1.28;100.00;96193.13;5092672;28;20394;-57
2021/11/30 11:12:10;;;;;;;1.40;1.30;;;;;;;1.36;100.00;96184.44;5094262;28;20493;-59
2021/11/30 11:14:48;;;;;;;1.37;1.27;;;;;;;1.24;100.00;96197.81;5113047;28;20927;-59
2021/11/30 11:17:31;;;;;;;1.45;1.30;;;;;;;1.34;100.00;96182.03;5096230;28;20384;-59
2021/11/30 11:19:58;;;;;;;1.45;1.35;;;;;;;1.43;100.00;96180.16;5100202;28;20873;-58
2021/11/30 11:22:27;;;;;;;1.77;1.27;;;;;;;1.38;100.00;96172.16;5107419;28;20401;-57
2021/11/30 11:24:59;;;;;;;1.67;1.20;;;;;;;1.43;100.00;96186.13;5095825;28;20886;-59
2021/11/30 11:27:31;;;;;;;1.30;1.20;;;;;;;1.59;100.00;96183.28;5092315;28;20899;-56
2021/11/30 11:29:56;;;;;;;1.20;1.10;;;;;;;1.61;99.68;96178.75;5075891;28;20394;-59
2021/11/30 11:32:23;;;;;;;1.02;1.02;;;;;;;1.53;100.00;96165.94;5093619;28;20395;-59
2021/11/30 11:34:49;;;;;;;1.10;1.10;;;;;;;1.60;99.76;96168.59;5110409;28;20412;-59
2021/11/30 11:37:15;;;;;;;1.10;1.10;;;;;;;1.63;99.82;96163.03;5097730;28;20378;-58
2021/11/30 11:39:40;;;;;;;1.00;1.00;;;;;;;1.55;99.23;96166.56;5101526;28;20406;-59
2021/11/30 11:42:09;;;;;;;1.05;1.05;;;;;;;1.73;99.13;96167.91;5101001;28;20484;-57
2021/11/30 11:44:35;;;;;;;1.38;1.27;;;;;;;1.74;98.09;96165.13;5092498;28;20405;-59
2021/11/30 11:47:10;;;;;;;1.10;1.10;;;;;;;1.60;99.35;96161.63;5107721;28;20916;-59